createdAt,value
2022-12-23T18:20:35.429Z,7.44
2022-12-23T18:23:04.164Z,7.57
2022-12-23T18:25:33.100Z,7.72
2022-12-23T18:28:01.580Z,7.88
2022-12-23T18:30:29.966Z,7.99
2022-12-23T18:32:58.254Z,8.10
2022-12-23T18:35:46.603Z,8.09
2022-12-23T18:38:16.038Z,8.20
2022-12-23T18:40:45.329Z,8.18
2022-12-23T18:43:24.443Z,8.27
2022-12-23T18:45:54.245Z,8.30
2022-12-23T18:48:22.813Z,8.33
2022-12-23T18:50:51.476Z,8.36
2022-12-23T18:53:24.910Z,8.41
2022-12-23T18:55:54.623Z,8.35
2022-12-23T18:58:23.909Z,8.41
2022-12-23T19:00:53.466Z,8.36
2022-12-23T19:03:27.180Z,8.35
2022-12-23T19:05:57.345Z,8.36
2022-12-23T19:08:27.979Z,8.38
2022-12-23T19:10:56.820Z,8.42
2022-12-23T19:13:25.606Z,8.45
2022-12-23T19:15:53.753Z,8.50
2022-12-23T19:18:22.485Z,8.53
2022-12-23T19:20:51.210Z,8.55
2022-12-23T19:23:19.694Z,8.57
2022-12-23T19:25:54.840Z,8.59
2022-12-23T19:28:23.694Z,8.59
2022-12-23T19:30:52.025Z,8.55
2022-12-23T19:33:20.261Z,8.57
2022-12-23T19:35:48.490Z,8.55
2022-12-23T19:38:16.395Z,8.48
2022-12-23T19:40:44.696Z,8.39
2022-12-23T19:43:13.172Z,8.44
2022-12-23T19:45:41.977Z,8.42
2022-12-23T19:48:10.237Z,8.40
2022-12-23T19:50:38.460Z,8.29
2022-12-23T19:53:06.517Z,8.32
2022-12-23T19:55:35.027Z,8.37
2022-12-23T19:58:03.141Z,8.25
2022-12-23T20:00:31.553Z,8.21
2022-12-23T20:02:59.997Z,8.11
2022-12-23T20:05:28.972Z,8.20
2022-12-23T20:07:57.677Z,8.28
2022-12-23T20:10:25.779Z,8.32
2022-12-23T20:12:53.862Z,8.32
2022-12-23T20:15:22.165Z,8.33
2022-12-23T20:17:50.356Z,8.30
2022-12-23T20:20:18.764Z,8.27
2022-12-23T20:22:47.096Z,8.24
2022-12-23T20:25:15.372Z,8.17
2022-12-23T20:27:44.168Z,8.11
2022-12-23T20:30:12.757Z,8.03
2022-12-23T20:32:41.434Z,8.08
2022-12-23T20:35:09.994Z,8.17
2022-12-23T20:37:38.206Z,8.06
2022-12-23T20:40:08.032Z,7.94
2022-12-23T20:42:36.869Z,8.03
2022-12-23T20:45:05.358Z,8.16
2022-12-23T20:47:33.641Z,8.20
2022-12-23T20:50:01.881Z,8.26
2022-12-23T20:52:30.204Z,8.31
2022-12-23T20:54:59.108Z,8.36
2022-12-23T20:57:28.102Z,8.37
2022-12-23T20:59:56.863Z,8.39
2022-12-23T21:02:25.573Z,8.37
2022-12-23T21:04:53.978Z,8.30
2022-12-23T21:07:22.101Z,8.32
2022-12-23T21:09:50.980Z,8.35
2022-12-23T21:12:19.393Z,8.39
2022-12-23T21:14:47.626Z,8.41
2022-12-23T21:17:15.819Z,8.43
2022-12-23T21:19:44.472Z,8.43
2022-12-23T21:22:12.875Z,8.46
2022-12-23T21:24:41.121Z,8.48
2022-12-23T21:27:09.377Z,8.46
2022-12-23T21:29:38.040Z,8.46
2022-12-23T21:32:06.305Z,8.45
2022-12-23T21:34:34.497Z,8.48
2022-12-23T21:37:02.549Z,8.49
2022-12-23T21:39:31.196Z,8.48
2022-12-23T21:41:59.318Z,8.46
2022-12-23T21:44:27.954Z,8.45
2022-12-23T21:46:56.218Z,8.46
2022-12-23T21:49:24.367Z,8.47
2022-12-23T21:51:53.680Z,8.47
2022-12-23T21:54:22.464Z,8.44
2022-12-23T21:56:50.583Z,8.46
2022-12-23T21:59:18.694Z,8.46
2022-12-23T22:01:46.905Z,8.46
2022-12-23T22:04:15.082Z,8.41
2022-12-23T22:06:45.164Z,8.30
2022-12-23T22:09:16.567Z,8.24
2022-12-23T22:11:46.314Z,8.17
2022-12-23T22:14:16.931Z,8.23
2022-12-23T22:16:45.346Z,8.24
2022-12-23T22:19:17.511Z,8.24
2022-12-23T22:21:46.274Z,8.27
2022-12-23T22:24:15.287Z,8.31
2022-12-23T22:26:43.842Z,8.32
2022-12-23T22:29:12.399Z,8.26
2022-12-23T22:31:53.448Z,8.29
2022-12-23T22:34:23.123Z,8.27
2022-12-23T22:36:51.532Z,8.21
2022-12-23T22:39:22.107Z,8.24
2022-12-23T22:41:51.561Z,8.21
2022-12-23T22:44:21.081Z,8.16
2022-12-23T22:46:49.775Z,8.07
2022-12-23T22:49:18.495Z,8.00
2022-12-23T22:51:46.591Z,8.06
2022-12-23T22:54:15.027Z,8.14
2022-12-23T22:56:46.086Z,8.03
2022-12-23T22:59:23.547Z,7.97
2022-12-23T23:01:53.547Z,8.01
2022-12-23T23:04:21.789Z,8.00
2022-12-23T23:06:52.993Z,8.07
2022-12-23T23:09:22.385Z,8.14
2022-12-23T23:11:51.167Z,8.18
2022-12-23T23:14:20.248Z,8.22
2022-12-23T23:16:48.588Z,8.24
2022-12-23T23:19:20.865Z,8.24
2022-12-23T23:21:49.675Z,8.24
2022-12-23T23:24:17.870Z,8.26
2022-12-23T23:26:46.514Z,8.24
2022-12-23T23:29:15.618Z,8.24
2022-12-23T23:31:44.934Z,8.28
2022-12-23T23:34:14.137Z,8.27
2022-12-23T23:36:42.661Z,8.30
2022-12-23T23:39:14.177Z,8.28
2022-12-23T23:41:42.766Z,8.24
2022-12-23T23:44:11.637Z,8.24
2022-12-23T23:46:40.379Z,8.24
2022-12-23T23:49:09.274Z,8.27
2022-12-23T23:51:38.078Z,8.27
2022-12-23T23:54:07.054Z,8.27
2022-12-23T23:56:38.823Z,8.23
2022-12-23T23:59:09.003Z,8.23
